Lutz, Florida
Current Conditions -  °F | °C
As of 1:15 AM on Sunday 21 Dec 2014 (Local Time) from KVDF Reporting Station
Broken Clouds Broken Clouds  
Wind Chill: 61°   Ceiling: 9500
Heat Index: 61°   Visibility: 10mi
Dew Point: 57°   Wind: 0mph
Humidity: 88%   Direction: NA
Pressure: 30.08"   Gusts: NA
Location:  28.15°N, 82.46°W
Report Text: KVDF 210615Z AUTO 00000KT 10SM BKN095 16/14 A3008 RMK AO2
Loading
Personal Weather Stations






























Interactive Weather Map New forecast layout! Learn more

10-Day Weather Forecast

Advertisements
Track Severe Weather on mobile